createdAt,value
2022-09-28T00:01:18.030Z,3.80
2022-09-28T00:03:46.851Z,4.47
2022-09-28T00:06:16.526Z,4.83
2022-09-28T00:08:44.820Z,4.73
2022-09-28T00:11:15.656Z,4.23
2022-09-28T00:13:44.204Z,4.60
2022-09-28T00:16:14.567Z,3.50
2022-09-28T00:18:43.141Z,2.80
2022-09-28T00:21:19.665Z,3.57
2022-09-28T00:24:06.900Z,3.57
2022-09-28T00:26:35.249Z,3.13
2022-09-28T00:29:03.761Z,3.60
2022-09-28T00:31:33.217Z,4.30
2022-09-28T00:34:02.127Z,2.50
2022-09-28T00:36:31.396Z,1.53
2022-09-28T00:38:59.904Z,3.90
2022-09-28T00:41:28.482Z,5.03
2022-09-28T00:44:27.428Z,5.43
2022-09-28T00:47:08.256Z,6.57
2022-09-28T00:49:44.703Z,4.70
2022-09-28T00:52:15.390Z,3.97
2022-09-28T00:54:44.058Z,3.63
2022-09-28T00:57:12.360Z,1.63
2022-09-28T00:59:40.700Z,1.53
2022-09-28T01:02:10.791Z,1.40
2022-09-28T01:04:39.198Z,1.00
2022-09-28T01:07:09.093Z,1.20
2022-09-28T01:09:39.375Z,0.70
2022-09-28T01:12:08.654Z,1.13
2022-09-28T01:14:36.852Z,1.03
2022-09-28T01:17:09.173Z,1.07
2022-09-28T01:20:05.917Z,0.80
2022-09-28T01:23:01.761Z,2.33
2022-09-28T01:25:56.560Z,1.70
2022-09-28T01:28:27.194Z,4.33
2022-09-28T01:30:55.275Z,3.40
2022-09-28T01:33:26.660Z,3.70
2022-09-28T01:36:00.386Z,3.10
2022-09-28T01:38:34.581Z,2.60
2022-09-28T01:41:02.894Z,1.53
2022-09-28T01:43:31.557Z,1.10
2022-09-28T01:46:07.371Z,1.00
2022-09-28T01:48:59.435Z,2.47
2022-09-28T01:51:51.543Z,2.17
2022-09-28T01:54:47.796Z,2.40
2022-09-28T01:57:20.892Z,3.17
2022-09-28T02:00:04.804Z,3.50
2022-09-28T02:03:05.924Z,3.80
2022-09-28T02:05:51.625Z,5.93
2022-09-28T02:08:27.179Z,4.13
2022-09-28T02:11:18.623Z,3.97
2022-09-28T02:13:54.547Z,2.20
2022-09-28T02:16:31.518Z,1.30
2022-09-28T02:18:59.926Z,1.40
2022-09-28T02:21:47.345Z,2.30
2022-09-28T02:24:39.858Z,3.23
2022-09-28T02:27:20.013Z,2.30
2022-09-28T02:29:49.224Z,2.37
2022-09-28T02:32:17.738Z,3.00
2022-09-28T02:34:46.121Z,3.83
2022-09-28T02:37:14.369Z,3.50
2022-09-28T02:39:42.664Z,4.97
2022-09-28T02:42:20.013Z,4.47
2022-09-28T02:45:14.641Z,3.40
2022-09-28T02:48:13.891Z,3.30
2022-09-28T02:51:15.224Z,2.57
2022-09-28T02:54:18.954Z,2.33
2022-09-28T02:56:53.231Z,2.57
2022-09-28T02:59:44.526Z,3.40
2022-09-28T03:02:48.288Z,3.20
2022-09-28T03:05:23.442Z,3.20
2022-09-28T03:08:20.232Z,1.87
2022-09-28T03:10:52.001Z,1.40
2022-09-28T03:13:20.972Z,0.90
2022-09-28T03:15:49.555Z,1.30
2022-09-28T03:18:19.286Z,0.90
2022-09-28T03:20:47.758Z,1.10
2022-09-28T03:23:31.223Z,1.60
2022-09-28T03:25:59.901Z,1.77
2022-09-28T03:28:28.406Z,2.23
2022-09-28T03:30:57.054Z,1.80
2022-09-28T03:33:25.541Z,1.30
2022-09-28T03:35:53.893Z,2.00
2022-09-28T03:38:22.221Z,1.47
2022-09-28T03:40:57.608Z,1.50
2022-09-28T03:43:26.915Z,1.50
2022-09-28T03:46:02.019Z,1.67
2022-09-28T03:48:34.478Z,1.37
2022-09-28T03:51:04.723Z,1.23
2022-09-28T03:53:33.475Z,1.30
2022-09-28T03:56:12.417Z,1.37
2022-09-28T03:58:41.357Z,2.00
2022-09-28T04:01:16.985Z,2.10
2022-09-28T04:03:47.435Z,2.80
2022-09-28T04:06:15.756Z,4.43
2022-09-28T04:08:44.002Z,4.03
2022-09-28T04:11:12.664Z,4.00
2022-09-28T04:13:41.466Z,2.00
2022-09-28T04:16:12.439Z,2.93
2022-09-28T04:18:44.718Z,3.10
2022-09-28T04:21:37.136Z,2.00
2022-09-28T04:24:11.273Z,1.93
2022-09-28T04:26:39.535Z,1.40
2022-09-28T04:29:16.568Z,1.00
2022-09-28T04:32:13.988Z,0.80
2022-09-28T04:34:44.352Z,1.40
2022-09-28T04:37:13.593Z,1.07
2022-09-28T04:39:45.095Z,0.90
2022-09-28T04:42:19.816Z,1.00
2022-09-28T04:44:50.505Z,0.77
2022-09-28T04:47:18.819Z,1.17
2022-09-28T04:50:06.150Z,1.37
2022-09-28T04:52:37.885Z,1.07
2022-09-28T04:55:06.930Z,1.10
2022-09-28T04:57:36.281Z,1.77
2022-09-28T05:00:05.542Z,2.57
2022-09-28T05:02:36.509Z,1.90
2022-09-28T05:05:46.077Z,1.70
2022-09-28T05:08:30.764Z,2.03
2022-09-28T05:11:00.516Z,1.70
2022-09-28T05:13:30.497Z,2.20
2022-09-28T05:16:03.058Z,2.70
2022-09-28T05:18:36.234Z,2.70
2022-09-28T05:21:13.266Z,2.17
2022-09-28T05:23:46.506Z,2.50
2022-09-28T05:26:15.423Z,2.33
2022-09-28T05:28:45.278Z,2.70
2022-09-28T05:31:42.634Z,9.27
2022-09-28T05:34:18.988Z,5.33
2022-09-28T05:36:47.545Z,3.70
2022-09-28T05:39:15.884Z,2.70
2022-09-28T05:41:44.255Z,1.80
2022-09-28T05:44:12.949Z,1.60
2022-09-28T05:46:41.395Z,1.17
2022-09-28T05:49:11.397Z,1.00
2022-09-28T05:51:40.495Z,0.90
2022-09-28T05:54:10.357Z,0.90
2022-09-28T05:56:42.888Z,1.40
2022-09-28T05:59:12.359Z,0.90
2022-09-28T06:01:41.340Z,0.60
2022-09-28T06:04:11.815Z,0.80
2022-09-28T06:06:43.432Z,1.43
2022-09-28T06:09:11.788Z,0.80
2022-09-28T06:11:42.765Z,0.87
2022-09-28T06:14:25.243Z,0.90
2022-09-28T06:16:54.482Z,1.00
2022-09-28T06:19:24.017Z,1.30
2022-09-28T06:22:09.325Z,0.70
2022-09-28T06:24:46.053Z,0.80
2022-09-28T06:27:14.494Z,0.80
2022-09-28T06:29:43.583Z,1.30
2022-09-28T06:32:14.608Z,0.77
2022-09-28T06:34:44.875Z,0.90
2022-09-28T06:37:13.349Z,0.90
2022-09-28T06:39:41.722Z,0.90
2022-09-28T06:42:10.609Z,1.15
2022-09-28T06:45:05.509Z,0.97
2022-09-28T06:48:00.386Z,1.38
2022-09-28T06:50:40.951Z,1.00
2022-09-28T06:53:36.100Z,1.13
2022-09-28T06:56:11.991Z,0.98
2022-09-28T06:58:40.403Z,0.90
2022-09-28T07:01:09.639Z,0.88
2022-09-28T07:03:47.029Z,0.90
2022-09-28T07:06:18.780Z,0.75
2022-09-28T07:09:32.389Z,0.90
2022-09-28T07:12:28.376Z,0.90
2022-09-28T07:15:01.779Z,0.63
2022-09-28T07:17:30.587Z,0.93
2022-09-28T07:20:17.429Z,0.80
2022-09-28T07:22:48.604Z,0.70
2022-09-28T07:25:22.075Z,0.73
2022-09-28T07:28:28.260Z,0.82
2022-09-28T07:31:25.823Z,0.80
2022-09-28T07:34:23.807Z,0.60
2022-09-28T07:37:14.096Z,0.88
2022-09-28T07:40:01.228Z,0.80
2022-09-28T07:42:32.166Z,0.77
2022-09-28T07:45:00.539Z,0.70
2022-09-28T07:47:34.671Z,0.88
2022-09-28T07:50:22.234Z,0.80
2022-09-28T07:52:57.922Z,0.90
2022-09-28T07:55:42.038Z,0.90
2022-09-28T07:58:17.338Z,1.00
2022-09-28T08:01:07.887Z,0.80
2022-09-28T08:03:37.003Z,1.27
2022-09-28T08:06:12.860Z,0.90
2022-09-28T08:08:45.003Z,0.80
2022-09-28T08:11:17.457Z,0.80
2022-09-28T08:14:06.193Z,1.00
2022-09-28T08:17:04.769Z,0.98
2022-09-28T08:20:14.206Z,0.70
2022-09-28T08:22:43.464Z,0.95
2022-09-28T08:25:12.633Z,0.82
2022-09-28T08:27:41.100Z,0.85
2022-09-28T08:30:10.203Z,0.90
2022-09-28T08:32:39.143Z,0.90
2022-09-28T08:35:30.727Z,0.85
2022-09-28T08:38:19.548Z,0.70
2022-09-28T08:41:37.084Z,0.70
2022-09-28T08:44:30.227Z,0.60
2022-09-28T08:47:40.887Z,0.60
2022-09-28T08:50:28.750Z,0.93
2022-09-28T08:53:38.291Z,0.68
2022-09-28T08:56:32.113Z,0.60
2022-09-28T08:59:22.620Z,0.50
2022-09-28T09:02:03.981Z,0.77
2022-09-28T09:04:34.588Z,0.65
2022-09-28T09:07:45.114Z,0.55
2022-09-28T09:10:50.310Z,0.40
2022-09-28T09:13:49.575Z,0.52
2022-09-28T09:16:26.339Z,0.60
2022-09-28T09:19:51.476Z,0.50
2022-09-28T09:22:39.444Z,0.57
2022-09-28T09:25:19.692Z,1.08
2022-09-28T09:27:53.811Z,1.00
2022-09-28T09:30:30.511Z,0.52
2022-09-28T09:33:31.103Z,0.60
2022-09-28T09:36:35.245Z,0.77
2022-09-28T09:40:05.725Z,0.50
2022-09-28T09:43:27.973Z,0.43
2022-09-28T09:46:42.138Z,0.70
2022-09-28T09:49:26.818Z,0.57
2022-09-28T09:52:07.440Z,0.73
2022-09-28T09:54:38.424Z,0.70
2022-09-28T09:57:17.966Z,0.85
2022-09-28T09:59:51.968Z,0.43
2022-09-28T10:02:29.516Z,0.50
2022-09-28T10:05:12.289Z,0.70
2022-09-28T10:08:06.834Z,0.75
2022-09-28T10:10:56.869Z,1.00
2022-09-28T10:13:29.592Z,0.63
2022-09-28T10:16:01.656Z,0.52
2022-09-28T10:18:43.555Z,0.50
2022-09-28T10:21:32.773Z,0.50
2022-09-28T10:24:08.891Z,0.57
2022-09-28T10:26:41.137Z,0.50
2022-09-28T10:29:17.914Z,0.63
2022-09-28T10:31:50.527Z,0.80
2022-09-28T10:34:28.917Z,0.47
2022-09-28T10:37:03.849Z,0.60
2022-09-28T10:40:06.344Z,0.60
2022-09-28T10:42:36.608Z,0.60
2022-09-28T10:45:14.646Z,0.73
2022-09-28T10:47:44.889Z,0.60
2022-09-28T10:50:24.109Z,0.30
2022-09-28T10:53:20.299Z,0.40
2022-09-28T10:56:22.568Z,0.93
2022-09-28T10:59:00.805Z,0.50
2022-09-28T11:01:44.920Z,0.52
2022-09-28T11:04:19.572Z,0.60
2022-09-28T11:06:48.134Z,0.60
2022-09-28T11:09:39.614Z,0.45
2022-09-28T11:12:18.667Z,0.40
2022-09-28T11:14:47.564Z,0.47
2022-09-28T11:17:26.761Z,0.60
2022-09-28T11:19:59.683Z,0.50
2022-09-28T11:22:34.364Z,0.70
2022-09-28T11:25:24.687Z,0.80
2022-09-28T11:27:52.953Z,0.50
2022-09-28T11:30:28.067Z,0.60
2022-09-28T11:33:42.766Z,0.50
2022-09-28T11:36:49.828Z,0.65
2022-09-28T11:39:38.156Z,0.65
2022-09-28T11:42:32.769Z,0.60
2022-09-28T11:45:31.020Z,0.60
2022-09-28T11:48:06.484Z,0.60
2022-09-28T11:50:51.754Z,0.80
2022-09-28T11:53:27.937Z,0.57
2022-09-28T11:56:16.801Z,0.50
2022-09-28T11:58:47.519Z,0.80
2022-09-28T12:01:31.345Z,0.82
2022-09-28T12:04:38.517Z,0.60
2022-09-28T12:07:12.662Z,0.90
2022-09-28T12:09:50.850Z,0.57
2022-09-28T12:12:43.847Z,0.63
2022-09-28T12:15:20.410Z,1.02
2022-09-28T12:17:53.413Z,0.70
2022-09-28T12:20:23.399Z,0.70
2022-09-28T12:22:56.042Z,0.60
2022-09-28T12:25:24.466Z,0.88
2022-09-28T12:28:00.439Z,0.82
2022-09-28T12:30:31.378Z,0.98
2022-09-28T12:33:12.602Z,0.90
2022-09-28T12:36:07.736Z,0.70
2022-09-28T12:39:17.708Z,0.80
2022-09-28T12:42:11.288Z,0.80
2022-09-28T12:44:54.751Z,0.90
2022-09-28T12:47:44.884Z,0.95
2022-09-28T12:50:39.924Z,0.70
2022-09-28T12:53:09.087Z,0.90
2022-09-28T12:55:56.629Z,1.10
2022-09-28T12:58:48.929Z,0.75
2022-09-28T13:01:23.026Z,0.98
2022-09-28T13:04:17.226Z,1.13
2022-09-28T13:07:22.531Z,1.10
2022-09-28T13:10:03.475Z,1.10
2022-09-28T13:12:40.856Z,0.82
2022-09-28T13:15:47.094Z,1.00
2022-09-28T13:18:41.512Z,0.93
2022-09-28T13:21:18.980Z,0.90
2022-09-28T13:23:47.674Z,0.90
2022-09-28T13:26:29.006Z,1.02
2022-09-28T13:28:58.979Z,1.10
2022-09-28T13:31:34.037Z,1.17
2022-09-28T13:34:04.882Z,1.05
2022-09-28T13:36:33.275Z,0.80
2022-09-28T13:39:01.618Z,1.10
2022-09-28T13:41:37.326Z,1.08
2022-09-28T13:44:12.630Z,1.00
2022-09-28T13:46:52.985Z,0.95
2022-09-28T13:49:25.189Z,1.08
2022-09-28T13:52:05.774Z,0.95
2022-09-28T13:55:00.291Z,1.02
2022-09-28T13:57:58.320Z,0.80
2022-09-28T14:00:43.663Z,0.88
2022-09-28T14:03:28.355Z,1.20
2022-09-28T14:06:08.392Z,1.23
2022-09-28T14:09:03.990Z,1.08
2022-09-28T14:11:35.583Z,0.95
2022-09-28T14:14:14.030Z,1.00
2022-09-28T14:16:42.691Z,1.25
2022-09-28T14:19:24.632Z,0.85
2022-09-28T14:22:23.785Z,1.00
2022-09-28T14:25:12.750Z,1.20
2022-09-28T14:28:05.189Z,1.70
2022-09-28T14:30:42.804Z,1.10
2022-09-28T14:33:24.666Z,1.10
2022-09-28T14:35:58.851Z,1.08
2022-09-28T14:39:13.329Z,1.20
2022-09-28T14:41:42.230Z,1.38
2022-09-28T14:44:16.789Z,0.85
2022-09-28T14:46:46.172Z,0.77
2022-09-28T14:49:17.845Z,1.00
2022-09-28T14:51:48.941Z,1.05
2022-09-28T14:54:24.683Z,0.88
2022-09-28T14:56:53.043Z,0.93
2022-09-28T14:59:36.414Z,0.80
2022-09-28T15:02:17.209Z,0.73
2022-09-28T15:04:56.150Z,1.20
2022-09-28T15:07:29.955Z,1.10
2022-09-28T15:09:58.837Z,1.00
2022-09-28T15:12:28.668Z,1.27
2022-09-28T15:15:05.282Z,0.95
2022-09-28T15:17:39.472Z,4.78
2022-09-28T15:20:50.470Z,2.15
2022-09-28T15:23:30.824Z,1.70
2022-09-28T15:25:59.783Z,1.60
2022-09-28T15:28:28.251Z,1.38
2022-09-28T15:31:03.631Z,1.33
2022-09-28T15:34:10.591Z,1.33
2022-09-28T15:36:42.685Z,1.40
2022-09-28T15:39:31.162Z,2.30
2022-09-28T15:42:00.891Z,1.95
2022-09-28T15:44:38.342Z,2.10
2022-09-28T15:47:15.504Z,1.30
2022-09-28T15:50:01.432Z,1.75
2022-09-28T15:52:41.236Z,1.70
2022-09-28T15:55:26.424Z,1.33
2022-09-28T15:58:15.952Z,1.40
2022-09-28T16:00:48.528Z,1.27
2022-09-28T16:03:24.576Z,1.25
2022-09-28T16:06:06.183Z,4.30
2022-09-28T16:08:44.844Z,6.15
2022-09-28T16:11:20.904Z,12.27
2022-09-28T16:14:06.436Z,13.18
2022-09-28T16:16:43.365Z,14.02
2022-09-28T16:19:26.211Z,17.77
2022-09-28T16:21:58.894Z,9.77
2022-09-28T16:24:29.903Z,7.13
2022-09-28T16:27:02.639Z,5.93
2022-09-28T16:29:40.371Z,5.40
2022-09-28T16:32:27.336Z,4.50
2022-09-28T16:35:13.361Z,6.70
2022-09-28T16:37:42.957Z,12.77
2022-09-28T16:40:11.946Z,12.73
2022-09-28T16:42:48.798Z,11.00
2022-09-28T16:45:21.970Z,11.98
2022-09-28T16:47:56.654Z,8.25
2022-09-28T16:50:26.084Z,6.68
2022-09-28T16:53:24.820Z,4.30
2022-09-28T16:55:53.322Z,2.38
2022-09-28T16:58:22.583Z,2.45
2022-09-28T17:00:53.390Z,2.05
2022-09-28T17:03:24.753Z,2.20
2022-09-28T17:05:54.218Z,2.22
2022-09-28T17:08:24.484Z,3.38
2022-09-28T17:11:16.610Z,2.70
2022-09-28T17:13:45.221Z,5.05
2022-09-28T17:16:37.118Z,7.50
2022-09-28T17:19:20.582Z,8.18
2022-09-28T17:21:49.471Z,7.85
2022-09-28T17:24:22.327Z,6.22
2022-09-28T17:26:55.206Z,4.47
2022-09-28T17:29:23.945Z,4.88
2022-09-28T17:31:54.175Z,4.57
2022-09-28T17:34:25.088Z,5.15
2022-09-28T17:36:57.362Z,4.20
2022-09-28T17:39:29.185Z,3.65
2022-09-28T17:42:01.328Z,2.92
2022-09-28T17:44:31.953Z,2.47
2022-09-28T17:47:09.443Z,3.63
2022-09-28T17:49:38.849Z,2.90
2022-09-28T17:52:10.413Z,3.35
2022-09-28T17:54:39.227Z,3.38
2022-09-28T17:57:10.962Z,3.72
2022-09-28T17:59:42.630Z,4.30
2022-09-28T18:02:11.950Z,4.55
2022-09-28T18:04:51.696Z,4.88
2022-09-28T18:07:21.219Z,4.40
2022-09-28T18:09:56.912Z,3.97
2022-09-28T18:12:27.150Z,4.50
2022-09-28T18:14:57.035Z,4.20
2022-09-28T18:17:25.375Z,3.83
2022-09-28T18:20:16.389Z,3.33
2022-09-28T18:22:51.947Z,2.80
2022-09-28T18:25:26.934Z,3.10
2022-09-28T18:28:00.579Z,3.25
2022-09-28T18:30:29.374Z,3.13
2022-09-28T18:33:23.291Z,2.58
2022-09-28T18:35:56.425Z,2.58
2022-09-28T18:38:25.358Z,2.17
2022-09-28T18:40:56.760Z,2.55
2022-09-28T18:43:26.555Z,2.37
2022-09-28T18:45:59.274Z,2.57
2022-09-28T18:48:37.812Z,2.25
2022-09-28T18:51:09.789Z,2.77
2022-09-28T18:53:40.967Z,3.33
2022-09-28T18:56:11.910Z,4.77
2022-09-28T18:58:46.173Z,6.20
2022-09-28T19:01:32.090Z,6.33
2022-09-28T19:04:02.616Z,5.85
2022-09-28T19:06:32.567Z,5.27
2022-09-28T19:09:09.178Z,5.63
2022-09-28T19:11:37.928Z,4.97
2022-09-28T19:14:06.454Z,3.97
2022-09-28T19:16:35.790Z,3.55
2022-09-28T19:19:09.474Z,3.58
2022-09-28T19:21:38.002Z,2.92
2022-09-28T19:24:06.605Z,2.92
2022-09-28T19:26:35.564Z,2.50
2022-09-28T19:29:03.973Z,2.37
2022-09-28T19:31:32.943Z,2.58
2022-09-28T19:34:10.472Z,2.20
2022-09-28T19:36:45.328Z,2.08
2022-09-28T19:39:20.791Z,2.10
2022-09-28T19:41:52.579Z,2.10
2022-09-28T19:44:25.548Z,3.80
2022-09-28T19:47:01.129Z,4.27
2022-09-28T19:49:33.511Z,3.67
2022-09-28T19:52:12.728Z,3.87
2022-09-28T19:54:48.649Z,3.50
2022-09-28T19:57:20.013Z,4.00
2022-09-28T19:59:52.137Z,3.47
2022-09-28T20:02:21.408Z,6.17
2022-09-28T20:04:49.820Z,5.90
2022-09-28T20:07:18.224Z,5.77
2022-09-28T20:09:48.531Z,6.27
2022-09-28T20:12:19.057Z,5.93
2022-09-28T20:14:47.437Z,6.10
2022-09-28T20:17:15.763Z,6.53
2022-09-28T20:19:46.677Z,6.15
2022-09-28T20:22:16.756Z,5.90
2022-09-28T20:24:44.979Z,5.70
2022-09-28T20:27:13.345Z,6.00
2022-09-28T20:29:43.248Z,5.90
2022-09-28T20:32:11.874Z,4.50
2022-09-28T20:34:40.098Z,4.07
2022-09-28T20:37:08.491Z,4.00
2022-09-28T20:39:39.392Z,3.87
2022-09-28T20:42:09.792Z,3.80
2022-09-28T20:44:38.360Z,3.07
2022-09-28T20:47:06.683Z,3.50
2022-09-28T20:49:35.090Z,3.00
2022-09-28T20:52:03.474Z,3.30
2022-09-28T20:54:31.779Z,3.50
2022-09-28T20:57:00.294Z,3.23
2022-09-28T20:59:28.977Z,3.03
2022-09-28T21:01:57.365Z,3.30
2022-09-28T21:04:26.139Z,3.10
2022-09-28T21:06:54.561Z,2.97
2022-09-28T21:09:22.792Z,3.50
2022-09-28T21:11:51.117Z,3.13
2022-09-28T21:14:19.623Z,2.70
2022-09-28T21:16:48.277Z,2.43
2022-09-28T21:19:16.616Z,2.50
2022-09-28T21:21:44.875Z,2.23
2022-09-28T21:24:13.357Z,2.20
2022-09-28T21:26:41.856Z,2.77
2022-09-28T21:29:14.139Z,2.80
2022-09-28T21:31:47.494Z,2.60
2022-09-28T21:34:20.985Z,2.37
2022-09-28T21:36:51.597Z,2.73
2022-09-28T21:39:20.409Z,2.67
2022-09-28T21:41:48.790Z,2.17
2022-09-28T21:44:17.205Z,2.03
2022-09-28T21:46:45.653Z,2.13
2022-09-28T21:49:14.600Z,2.17
2022-09-28T21:51:42.881Z,2.00
2022-09-28T21:54:12.238Z,1.93
2022-09-28T21:56:40.785Z,1.90
2022-09-28T21:59:09.084Z,1.67
2022-09-28T22:01:37.511Z,1.90
2022-09-28T22:04:06.175Z,1.93
2022-09-28T22:06:35.292Z,2.17
2022-09-28T22:09:03.680Z,1.70
2022-09-28T22:11:31.948Z,1.97
2022-09-28T22:14:00.379Z,2.17
2022-09-28T22:16:29.843Z,2.33
2022-09-28T22:18:58.754Z,3.30
2022-09-28T22:21:28.669Z,3.30
2022-09-28T22:24:01.364Z,3.80
2022-09-28T22:26:30.538Z,3.30
2022-09-28T22:29:04.415Z,3.33
2022-09-28T22:31:39.365Z,3.30
2022-09-28T22:34:07.903Z,3.17
2022-09-28T22:36:36.285Z,2.50
2022-09-28T22:39:04.944Z,3.17
2022-09-28T22:41:33.344Z,4.10
2022-09-28T22:44:02.010Z,4.17
2022-09-28T22:46:32.340Z,3.50
2022-09-28T22:49:01.037Z,3.20
2022-09-28T22:51:29.839Z,2.43
2022-09-28T22:53:58.204Z,2.70
2022-09-28T22:56:26.522Z,7.77
2022-09-28T22:58:54.947Z,10.27
2022-09-28T23:01:24.974Z,11.80
2022-09-28T23:03:53.503Z,11.83
2022-09-28T23:06:22.969Z,10.77
2022-09-28T23:08:51.754Z,10.40
2022-09-28T23:11:20.078Z,8.03
2022-09-28T23:13:55.713Z,8.23
2022-09-28T23:16:25.865Z,9.90
2022-09-28T23:18:55.158Z,12.27
2022-09-28T23:21:24.865Z,10.73
2022-09-28T23:23:54.921Z,10.23
2022-09-28T23:26:28.265Z,8.87
2022-09-28T23:28:56.692Z,10.47
2022-09-28T23:31:29.559Z,9.10
2022-09-28T23:34:07.350Z,9.10
2022-09-28T23:36:36.164Z,7.47
2022-09-28T23:39:04.565Z,8.10
2022-09-28T23:41:32.797Z,7.53
2022-09-28T23:44:01.086Z,6.13
2022-09-28T23:46:29.426Z,4.67
2022-09-28T23:48:57.660Z,4.27
2022-09-28T23:51:25.929Z,3.00
2022-09-28T23:53:54.189Z,2.70
2022-09-28T23:56:22.463Z,3.17
2022-09-28T23:58:51.744Z,2.70
